Startpagina
METAR-TAF:

METAR-TAF

Vliegvelden :

Vlissingen, Nederland

breedte: 51-27N, lengte: 3-36E, hoogte: 10 m

Actueel weer

Dit bericht is 44 minuten geleden gemaakt, om 02:55 UTC
Wind 9 kt uit het westnoordwesten, variërend tussen het westen en het noordnoordwesten
Temperatuur 12°C
Vochtigheid 58%
Druk 997 hPa
Zicht 10 km of meer

METAR: EHFS 060255Z AUTO 30009KT 260V330 9999 FEW029/// SCT043/// BKN047/// 12/04 Q0997 RETS

Tijdstip: 05:39 (03:39 UTC)


TAF: ontbreekt

Waarnemingen en weersverwachtingen van meer dan 4000 vliegvelden (METAR en TAF).

De beschikbare stations zijn de gele en rode punten op de kaart.

Ga met uw muis naar het station om de naam te zien.

Klik dan om waarnemingen en weersverwachtingen te zien.

kaart wijzigen: klik op de groene knoppen met een zwart kruis om in te zoomen, op de groene knop met een streepje om uit te zoomen of op de groene pijlen voor aangrenzende kaarten.


METAR-TAF: